Terminal Aerodrome Forecast
Issued by NWS Mt. Holly, NJ

Current Version | Previous Version | Text Only | Print | Product List | Glossary On
Versions: 1 2 3 4 5 6 7 8 9 10 11 12 13 14 15 16 17 18 19 20 21 22 23 24 25 26 27 28 29 30 31 32 33 34 35 36 37 38 39 40 41 42 43 44 45
000
FTUS41 KPHI 290529
TAFABE
TAF
KABE 290529Z 2906/3006 01003KT P6SM -SHRA SCT050 BKN100
     FM290700 32005KT 6SM SHRA SCT015 OVC050
      TEMPO 2907/2910 3SM TSRA BKN015CB
     FM291400 27010KT P6SM BKN050
     FM291700 27012G18KT P6SM SCT050 BKN150
     FM292100 30006KT P6SM SCT050 BKN150 PROB30 2921/2923 4SM TSRA
      BKN050CB
     FM300100 01004KT P6SM BKN150
     FM300300 03004KT 5SM BR BKN015=

USA.gov is the U.S. government's official web portal to all federal, state and local government web resources and services.